createdAt,value
2017-11-03T00:00:33.688Z,20.37
2017-11-03T00:05:35.510Z,23.63
2017-11-03T00:10:37.317Z,23.30
2017-11-03T00:15:38.382Z,19.73
2017-11-03T00:20:39.433Z,22.23
2017-11-03T00:25:40.518Z,24.33
2017-11-03T00:30:41.593Z,20.10
2017-11-03T00:35:42.653Z,22.67
2017-11-03T00:40:43.717Z,18.87
2017-11-03T00:45:44.784Z,20.20
2017-11-03T00:50:45.850Z,22.30
2017-11-03T00:55:46.908Z,20.87
2017-11-03T01:00:47.971Z,24.23
2017-11-03T01:05:49.762Z,24.83
2017-11-03T01:10:50.805Z,22.43
2017-11-03T01:15:52.582Z,23.67
2017-11-03T01:20:54.379Z,22.40
2017-11-03T01:25:55.439Z,22.30
2017-11-03T01:30:56.485Z,21.30
2017-11-03T01:35:58.283Z,21.80
2017-11-03T01:40:59.358Z,21.80
2017-11-03T01:46:00.449Z,20.40
2017-11-03T01:51:01.510Z,23.23
2017-11-03T01:56:02.585Z,19.97
2017-11-03T02:01:04.375Z,23.87
2017-11-03T02:06:05.443Z,24.63
2017-11-03T02:11:06.518Z,26.17
2017-11-03T02:16:07.609Z,21.60
2017-11-03T02:21:08.682Z,20.83
2017-11-03T02:26:09.764Z,26.80
2017-11-03T02:31:10.814Z,23.80
2017-11-03T02:36:12.621Z,20.77
2017-11-03T02:41:13.701Z,21.37
2017-11-03T02:46:14.762Z,22.83
2017-11-03T02:51:15.833Z,22.90
2017-11-03T02:56:16.893Z,21.83
2017-11-03T03:01:17.945Z,26.03
2017-11-03T03:06:18.996Z,24.10
2017-11-03T03:11:20.049Z,21.80
2017-11-03T03:16:21.104Z,22.30
2017-11-03T03:21:22.188Z,20.07
2017-11-03T03:26:23.284Z,23.90
2017-11-03T03:31:24.341Z,21.80
2017-11-03T03:36:25.437Z,21.90
2017-11-03T03:41:26.496Z,23.93
2017-11-03T03:46:27.562Z,23.40
2017-11-03T03:51:28.662Z,23.83
2017-11-03T03:56:29.717Z,28.80
2017-11-03T04:01:31.565Z,25.37
2017-11-03T04:06:32.679Z,24.80
2017-11-03T04:11:33.734Z,24.63
2017-11-03T04:16:34.769Z,20.70
2017-11-03T04:21:40.204Z,24.83
2017-11-03T04:26:41.298Z,24.67
2017-11-03T04:31:42.381Z,23.97
2017-11-03T04:36:43.445Z,21.60
2017-11-03T04:41:44.513Z,23.03
2017-11-03T04:46:45.586Z,24.70
2017-11-03T04:51:47.402Z,21.87
2017-11-03T04:56:49.197Z,20.10
2017-11-03T05:01:50.261Z,21.63
2017-11-03T05:06:51.337Z,26.77
2017-11-03T05:11:52.401Z,28.33
2017-11-03T05:16:53.456Z,25.90
2017-11-03T05:21:54.529Z,23.10
2017-11-03T05:26:56.098Z,22.43
2017-11-03T05:31:57.930Z,22.00
2017-11-03T05:36:59.012Z,21.73
2017-11-03T05:42:00.089Z,23.20
2017-11-03T05:47:01.152Z,20.37
2017-11-03T05:52:02.213Z,24.30
2017-11-03T05:57:03.277Z,26.03
2017-11-03T06:02:04.342Z,25.33
2017-11-03T06:07:07.393Z,22.37
2017-11-03T06:12:08.474Z,22.40
2017-11-03T06:17:09.566Z,25.07
2017-11-03T06:22:10.641Z,24.77
2017-11-03T06:27:12.449Z,23.17
2017-11-03T06:32:13.509Z,25.87
2017-11-03T06:37:14.569Z,23.07
2017-11-03T06:42:15.657Z,23.20
2017-11-03T06:47:16.704Z,25.23
2017-11-03T06:52:17.757Z,24.40
2017-11-03T06:57:18.809Z,28.30
2017-11-03T07:02:19.880Z,28.40
2017-11-03T07:07:20.947Z,25.67
2017-11-03T07:12:22.010Z,25.30
2017-11-03T07:17:23.077Z,21.97
2017-11-03T07:22:24.126Z,20.80
2017-11-03T07:27:25.184Z,24.93
2017-11-03T07:32:26.220Z,27.07
2017-11-03T07:37:27.289Z,22.23
2017-11-03T07:42:28.358Z,22.80
2017-11-03T07:47:29.426Z,26.00
2017-11-03T07:52:30.489Z,24.80
2017-11-03T07:57:32.317Z,27.73
2017-11-03T08:02:33.368Z,28.50
2017-11-03T08:07:35.140Z,28.37
2017-11-03T08:12:36.205Z,24.87
2017-11-03T08:17:37.268Z,29.50
2017-11-03T08:22:38.345Z,28.87
2017-11-03T08:27:43.028Z,29.83
2017-11-03T08:32:44.828Z,28.30
2017-11-03T08:37:45.885Z,24.57
2017-11-03T08:42:47.797Z,25.73
2017-11-03T08:47:48.840Z,26.40
2017-11-03T08:52:49.926Z,25.70
2017-11-03T08:57:51.016Z,24.63
2017-11-03T09:02:52.796Z,23.17
2017-11-03T09:07:54.589Z,25.17
2017-11-03T09:12:56.674Z,22.30
2017-11-03T09:17:57.752Z,26.93
2017-11-03T09:22:58.830Z,26.50
2017-11-03T09:27:59.901Z,25.13
2017-11-03T09:33:00.977Z,24.70
2017-11-03T09:38:02.785Z,25.83
2017-11-03T09:43:03.882Z,29.53
2017-11-03T09:48:04.960Z,22.63
2017-11-03T09:53:06.015Z,24.47
2017-11-03T09:58:07.885Z,24.50
2017-11-03T10:03:08.952Z,35.13
2017-11-03T10:08:10.014Z,27.87
2017-11-03T10:13:11.841Z,27.47
2017-11-03T10:18:12.921Z,26.20
2017-11-03T10:23:14.065Z,29.47
2017-11-03T10:28:15.149Z,26.57
2017-11-03T10:33:16.234Z,32.60
2017-11-03T10:38:18.040Z,22.43
2017-11-03T10:43:19.122Z,23.17
2017-11-03T10:48:20.204Z,25.87
2017-11-03T10:53:21.257Z,23.70
2017-11-03T10:58:22.347Z,22.47
2017-11-03T11:03:24.135Z,24.40
2017-11-03T11:08:25.177Z,23.60
2017-11-03T11:13:26.998Z,26.00
2017-11-03T11:18:28.073Z,32.60
2017-11-03T11:23:29.138Z,21.70
2017-11-03T11:28:30.204Z,19.90
2017-11-03T11:33:31.276Z,25.20
2017-11-03T11:38:33.089Z,22.77
2017-11-03T11:43:34.253Z,22.80
2017-11-03T11:48:35.345Z,22.23
2017-11-03T11:53:36.421Z,18.80
2017-11-03T11:58:37.526Z,19.90
2017-11-03T12:03:38.640Z,20.13
2017-11-03T12:08:43.074Z,19.23
2017-11-03T12:13:44.167Z,20.10
2017-11-03T12:18:45.656Z,22.50
2017-11-03T12:23:46.769Z,20.73
2017-11-03T12:28:47.849Z,18.67
2017-11-03T12:33:49.653Z,20.60
2017-11-03T12:38:50.702Z,16.53
2017-11-03T12:43:51.794Z,18.43
2017-11-03T12:48:52.862Z,18.80
2017-11-03T12:53:53.945Z,20.83
2017-11-03T12:58:55.745Z,19.60
2017-11-03T13:03:56.825Z,25.03
2017-11-03T13:08:57.892Z,24.73
2017-11-03T13:13:58.957Z,20.20
2017-11-03T13:19:00.023Z,19.13
2017-11-03T13:24:01.081Z,20.63
2017-11-03T13:29:02.197Z,25.47
2017-11-03T13:34:03.262Z,20.70
2017-11-03T13:39:04.341Z,23.97
2017-11-03T13:44:05.415Z,21.60
2017-11-03T13:49:06.472Z,18.77
2017-11-03T13:54:07.566Z,20.27
2017-11-03T13:59:09.388Z,18.23
2017-11-03T14:04:10.452Z,19.10
2017-11-03T14:09:11.523Z,19.70
2017-11-03T14:14:12.586Z,20.63
2017-11-03T14:19:16.997Z,20.90
2017-11-03T14:24:18.070Z,17.93
2017-11-03T14:29:19.151Z,17.33
2017-11-03T14:34:20.239Z,17.87
2017-11-03T14:39:22.057Z,19.50
2017-11-03T14:44:23.395Z,24.40
2017-11-03T14:49:24.453Z,20.30
2017-11-03T14:54:25.513Z,20.93
2017-11-03T14:59:27.576Z,24.07
2017-11-03T15:04:29.378Z,19.43
2017-11-03T15:09:30.452Z,20.00
2017-11-03T15:14:31.522Z,23.40
2017-11-03T15:19:32.600Z,19.43
2017-11-03T15:24:33.683Z,23.37
2017-11-03T15:29:34.777Z,20.30
2017-11-03T15:34:35.882Z,25.20
2017-11-03T15:39:36.946Z,21.03
2017-11-03T15:44:38.750Z,20.73
2017-11-03T15:49:39.821Z,24.67
2017-11-03T15:54:41.882Z,22.37
2017-11-03T15:59:42.956Z,23.23
2017-11-03T16:04:44.021Z,25.20
2017-11-03T16:09:45.093Z,29.93
2017-11-03T16:14:46.208Z,24.70
2017-11-03T16:19:47.996Z,33.60
2017-11-03T16:24:49.076Z,23.03
2017-11-03T16:29:50.150Z,24.73
2017-11-03T16:34:51.205Z,25.80
2017-11-03T16:39:52.290Z,24.70
2017-11-03T16:44:53.375Z,25.73
2017-11-03T16:49:54.445Z,25.50
2017-11-03T16:54:55.558Z,29.43
2017-11-03T16:59:56.622Z,24.23
2017-11-03T17:04:57.668Z,27.60
2017-11-03T17:09:58.733Z,24.13
2017-11-03T17:14:59.806Z,26.17
2017-11-03T17:20:13.832Z,24.10
2017-11-03T17:25:14.886Z,29.87
2017-11-03T17:30:15.966Z,28.23
2017-11-03T17:35:31.969Z,29.37
2017-11-03T17:40:33.022Z,27.50
2017-11-03T17:45:34.098Z,32.13
2017-11-03T17:50:35.170Z,31.23
2017-11-03T17:55:41.570Z,29.67
2017-11-03T18:00:43.384Z,26.60
2017-11-03T18:05:46.528Z,29.73
2017-11-03T18:10:47.610Z,34.80
2017-11-03T18:15:49.452Z,31.43
2017-11-03T18:20:58.910Z,27.50
2017-11-03T18:25:59.974Z,27.10
2017-11-03T18:31:01.028Z,32.73
2017-11-03T18:36:02.098Z,30.27
2017-11-03T18:41:03.212Z,31.93
2017-11-03T18:46:04.241Z,28.80
2017-11-03T18:51:05.345Z,28.70
2017-11-03T18:56:06.444Z,26.00
2017-11-03T19:01:08.217Z,29.73
2017-11-03T19:06:10.013Z,30.53
2017-11-03T19:11:11.064Z,29.17
2017-11-03T19:16:12.885Z,31.97
2017-11-03T19:21:13.977Z,28.30
2017-11-03T19:26:15.119Z,31.33
2017-11-03T19:31:16.212Z,29.37
2017-11-03T19:36:18.045Z,31.67
2017-11-03T19:41:19.132Z,27.13
2017-11-03T19:46:20.193Z,32.47
2017-11-03T19:51:21.982Z,29.23
2017-11-03T19:56:27.422Z,33.17
2017-11-03T20:01:29.268Z,27.17
2017-11-03T20:06:30.372Z,30.40
2017-11-03T20:11:32.216Z,32.33
2017-11-03T20:16:33.271Z,29.90
2017-11-03T20:21:34.325Z,32.77
2017-11-03T20:26:37.129Z,30.20
2017-11-03T20:31:38.253Z,34.23
2017-11-03T20:36:39.359Z,31.90
2017-11-03T20:41:40.460Z,31.47
2017-11-03T20:46:41.550Z,32.63
2017-11-03T20:51:42.614Z,33.00
2017-11-03T20:56:43.740Z,31.40
2017-11-03T21:01:44.852Z,40.83
2017-11-03T21:06:45.894Z,36.30
2017-11-03T21:11:46.930Z,34.83
2017-11-03T21:16:48.011Z,33.10
2017-11-03T21:21:49.049Z,33.17
2017-11-03T21:26:50.109Z,34.27
2017-11-03T21:31:51.157Z,32.37
2017-11-03T21:36:52.205Z,36.70
2017-11-03T21:41:53.252Z,33.50
2017-11-03T21:46:54.360Z,31.70
2017-11-03T21:51:55.417Z,32.70
2017-11-03T21:56:56.516Z,32.30
2017-11-03T22:01:58.289Z,34.43
2017-11-03T22:07:00.081Z,28.93
2017-11-03T22:12:01.117Z,32.87
2017-11-03T22:17:02.949Z,33.70
2017-11-03T22:22:04.001Z,31.70
2017-11-03T22:27:05.053Z,34.13
2017-11-03T22:32:06.121Z,30.77
2017-11-03T22:37:07.174Z,31.07
2017-11-03T22:42:09.124Z,32.00
2017-11-03T22:47:10.218Z,29.20
2017-11-03T22:52:11.258Z,29.33
2017-11-03T22:57:12.367Z,30.50
2017-11-03T23:02:13.453Z,34.87
2017-11-03T23:07:15.226Z,26.20
2017-11-03T23:12:17.015Z,26.83
2017-11-03T23:17:18.049Z,27.27
2017-11-03T23:22:19.849Z,26.20
2017-11-03T23:27:20.917Z,29.27
2017-11-03T23:32:21.989Z,21.83
2017-11-03T23:37:23.044Z,30.73
2017-11-03T23:42:24.101Z,22.90
2017-11-03T23:47:25.169Z,21.60
2017-11-03T23:52:26.229Z,22.60
2017-11-03T23:57:27.281Z,44.20
